Time;durP1;ratioP1;P1;durP2;ratioP2;P2;SDS_P1;SDS_P2;PMS_P1;PMS_P2;Temp;Humidity;BMP_temperature;BMP_pressure;BME280_temperature;BME280_humidity;BME280_pressure;Samples;Min_cycle;Max_cycle;Signal;HPM_P1;HPM_P2
2023/01/20 00:01:45;;;;;;;47.60;23.38;;;1.90;99.90;;;-144.05;76.49;125687.94;5044428;28;20036;-81
2023/01/20 00:04:11;;;;;;;46.78;23.75;;;1.90;99.90;;;-144.05;76.89;125687.94;5061057;28;20021;-79
2023/01/20 00:06:37;;;;;;;44.92;23.60;;;1.90;99.90;;;-144.05;76.25;125687.94;5042489;28;20579;-80
2023/01/20 00:09:05;;;;;;;51.33;23.65;;;1.90;99.90;;;-144.05;76.20;125687.94;5041672;28;20056;-80
2023/01/20 00:11:31;;;;;;;47.92;24.05;;;1.90;99.90;;;-144.05;76.24;125687.94;5059985;28;20033;-80
2023/01/20 00:14:01;;;;;;;50.20;24.00;;;1.90;99.90;;;-144.05;76.78;125687.94;5036986;28;20369;-80
2023/01/20 00:16:28;;;;;;;50.50;24.80;;;1.90;99.90;;;-144.05;76.10;125687.94;5036568;28;20052;-80
2023/01/20 00:18:54;;;;;;;52.45;26.40;;;1.90;99.90;;;-144.05;75.86;125687.94;5035717;28;20032;-79
2023/01/20 00:21:21;;;;;;;52.40;26.02;;;1.90;99.90;;;-144.05;75.82;125687.94;5037485;28;20496;-80
2023/01/20 00:23:48;;;;;;;52.75;26.45;;;1.90;99.90;;;-144.05;75.55;125687.94;5036510;28;20377;-79
2023/01/20 00:26:23;;;;;;;59.40;27.65;;;1.90;99.90;;;-144.05;75.89;125687.94;5054327;28;20409;-82
2023/01/20 00:28:54;;;;;;;51.67;26.83;;;1.90;99.90;;;-144.05;75.75;125687.94;5037368;28;20118;-79
2023/01/20 00:31:28;;;;;;;52.28;27.02;;;1.90;99.90;;;-144.05;76.44;125687.94;5055228;28;20032;-80
2023/01/20 00:33:58;;;;;;;51.30;25.48;;;1.80;99.90;;;-144.05;76.19;125687.94;5054654;28;20029;-81
2023/01/20 00:36:28;;;;;;;53.38;24.50;;;1.80;99.90;;;-144.05;76.12;125687.94;5056339;28;20064;-79
2023/01/20 00:38:54;;;;;;;49.40;24.70;;;1.80;99.90;;;-144.05;76.12;125687.94;5036771;28;20025;-82
2023/01/20 00:41:20;;;;;;;52.33;26.75;;;1.80;99.90;;;-144.05;76.31;125687.94;5055416;28;20131;-81
2023/01/20 00:43:46;;;;;;;51.15;26.88;;;1.80;99.90;;;-144.05;76.02;125687.94;5037260;28;20025;-81
2023/01/20 00:46:13;;;;;;;53.13;27.05;;;1.70;99.90;;;-144.05;76.58;125687.94;5055895;28;20025;-80
2023/01/20 00:48:40;;;;;;;49.03;25.50;;;1.70;99.90;;;-144.05;76.54;125687.94;5054578;28;20029;-81
2023/01/20 00:51:08;;;;;;;53.35;25.38;;;1.70;99.90;;;-144.05;76.72;125687.94;5057027;28;20391;-81
2023/01/20 00:53:35;;;;;;;51.20;24.63;;;1.70;99.90;;;-144.05;76.32;125687.94;5038471;28;20049;-80
2023/01/20 00:56:01;;;;;;;48.58;24.80;;;1.70;99.90;;;-144.05;76.25;125687.94;5037571;28;20139;-81
2023/01/20 00:58:27;;;;;;;57.35;26.40;;;1.70;99.90;;;-144.05;76.31;125687.94;5040196;28;20096;-80
2023/01/20 01:00:54;;;;;;;49.78;25.48;;;1.70;99.90;;;-144.05;75.97;125687.94;5043972;28;20082;-80
2023/01/20 01:03:22;;;;;;;52.00;24.15;;;1.70;99.90;;;-144.05;76.11;125687.94;5043881;28;20032;-79
2023/01/20 01:05:48;;;;;;;51.20;24.23;;;1.70;99.90;;;-144.05;76.46;125687.94;5044685;28;20123;-80
2023/01/20 01:08:14;;;;;;;41.17;22.20;;;1.70;99.90;;;-144.05;76.38;125687.94;5046808;28;20052;-81
2023/01/20 01:10:40;;;;;;;52.03;24.65;;;1.60;99.90;;;-144.05;76.55;125687.94;5062500;28;20116;-79
2023/01/20 01:13:07;;;;;;;50.35;25.05;;;1.70;99.90;;;-144.05;76.00;125687.94;5042705;28;20074;-82
2023/01/20 01:15:34;;;;;;;48.17;26.20;;;1.60;99.90;;;-144.05;75.90;125687.94;5043072;28;20037;-79
2023/01/20 01:18:01;;;;;;;52.13;25.30;;;1.60;99.90;;;-144.05;76.24;125687.94;5044033;28;20036;-79
2023/01/20 01:20:28;;;;;;;56.33;25.42;;;1.60;99.90;;;-144.05;76.39;125687.94;5042352;28;20041;-77
2023/01/20 01:22:55;;;;;;;54.15;26.58;;;1.60;99.90;;;-144.05;76.24;125687.94;5041405;28;20029;-82
2023/01/20 01:25:21;;;;;;;56.65;27.10;;;1.60;99.90;;;-144.05;77.06;125687.94;5059932;28;20040;-79
2023/01/20 01:27:47;;;;;;;54.40;26.40;;;1.60;99.90;;;-144.05;76.79;125687.94;5065702;28;20083;-80
2023/01/20 01:30:13;;;;;;;53.40;26.42;;;1.50;99.90;;;-144.05;77.31;125687.94;5041105;28;20724;-78
2023/01/20 01:32:38;;;;;;;55.20;25.42;;;1.60;99.90;;;-144.05;76.78;125687.94;5059093;28;20102;-81
2023/01/20 01:35:06;;;;;;;59.05;27.02;;;1.50;99.90;;;-144.05;77.14;125687.94;5059493;28;20089;-80
2023/01/20 01:37:32;;;;;;;55.28;25.60;;;1.50;99.90;;;-144.05;77.13;125687.94;5058946;28;20031;-81
2023/01/20 01:39:58;;;;;;;59.72;26.85;;;1.50;99.90;;;-144.05;76.92;125687.94;5040512;28;20028;-78
2023/01/20 01:42:25;;;;;;;59.30;27.27;;;1.50;99.90;;;-144.05;77.19;125687.94;5039980;28;20029;-80
2023/01/20 01:45:09;;;;;;;62.35;29.23;;;1.50;99.90;;;-144.05;77.78;125687.94;5039534;28;20033;-78
2023/01/20 01:48:00;;;;;;;58.03;28.67;;;1.50;99.90;;;-144.05;77.58;125687.94;5057490;28;20082;-79
2023/01/20 01:50:41;;;;;;;60.03;28.58;;;1.50;99.90;;;-144.05;76.94;125687.94;5060608;28;20064;-78
2023/01/20 01:53:09;;;;;;;58.97;27.90;;;1.50;99.90;;;-144.05;76.66;125687.94;5042597;28;20048;-80
2023/01/20 01:55:44;;;;;;;57.42;27.63;;;1.50;99.90;;;-144.05;76.54;125687.94;5059616;28;20033;-79
2023/01/20 01:58:17;;;;;;;61.20;27.70;;;1.50;99.90;;;-144.05;76.74;125687.94;5042434;28;20029;-81
2023/01/20 02:00:45;;;;;;;53.22;26.50;;;1.40;99.90;;;-144.05;76.88;125687.94;5042930;28;20267;-78
2023/01/20 02:03:12;;;;;;;57.58;27.10;;;1.40;99.90;;;-144.05;76.35;125687.94;5041715;28;20484;-79
2023/01/20 02:05:42;;;;;;;55.70;26.98;;;1.40;99.90;;;-144.05;76.10;125687.94;5059345;28;20114;-79
2023/01/20 02:08:09;;;;;;;55.13;26.10;;;1.40;99.90;;;-144.05;76.48;125687.94;5057394;28;20067;-79
2023/01/20 02:10:35;;;;;;;47.83;23.80;;;1.40;99.90;;;-144.05;76.80;125687.94;5038426;28;20028;-79
2023/01/20 02:13:02;;;;;;;49.88;23.38;;;1.40;99.90;;;-144.05;76.19;125687.94;5054221;28;20365;-81
2023/01/20 02:15:45;;;;;;;53.88;25.23;;;1.40;99.90;;;-144.05;75.66;125687.94;5054262;28;20449;-79
2023/01/20 02:18:47;;;;;;;45.95;22.95;;;1.40;99.90;;;-144.05;75.26;125687.94;5053945;28;20028;-79
2023/01/20 02:22:03;;;;;;;50.58;24.80;;;1.40;99.90;;;-144.05;75.47;125687.94;5035890;28;20033;-79
2023/01/20 02:24:50;;;;;;;52.90;23.88;;;1.40;99.90;;;-144.05;75.61;125687.94;5054550;28;20118;-83
2023/01/20 02:28:05;;;;;;;51.78;22.63;;;1.40;99.90;;;-144.05;75.55;125687.94;5054356;28;20029;-79
2023/01/20 02:30:53;;;;;;;45.78;22.10;;;1.40;99.90;;;-144.05;75.55;125687.94;5035846;28;20055;-78
2023/01/20 02:33:47;;;;;;;47.13;23.02;;;1.40;99.90;;;-144.05;75.42;125687.94;5035991;28;20040;-80
2023/01/20 02:36:50;;;;;;;48.03;22.75;;;1.40;99.90;;;-144.05;75.13;125687.94;5054179;28;20400;-79
2023/01/20 02:39:52;;;;;;;52.17;23.63;;;1.40;99.90;;;-144.05;75.62;125687.94;5041047;28;20037;-81
2023/01/20 02:42:50;;;;;;;57.30;24.23;;;1.40;99.90;;;-144.05;75.19;125687.94;5053457;28;20029;-78
2023/01/20 02:45:34;;;;;;;48.50;22.42;;;1.30;99.90;;;-144.05;75.52;125687.94;5035834;28;20032;-80
2023/01/20 02:48:21;;;;;;;50.25;23.92;;;1.20;99.90;;;-144.05;75.29;125687.94;5035356;28;20036;-81
2023/01/20 02:51:10;;;;;;;52.47;24.95;;;1.20;99.90;;;-144.05;75.63;125687.94;5053253;28;20480;-81
2023/01/20 02:54:05;;;;;;;61.13;25.48;;;1.20;99.90;;;-144.05;75.75;125687.94;5053516;28;20036;-81
2023/01/20 02:56:34;;;;;;;53.38;25.85;;;1.20;99.90;;;-144.05;76.25;125687.94;5035631;28;20091;-81
2023/01/20 02:59:09;;;;;;;61.15;26.65;;;1.20;99.90;;;-144.05;75.99;125687.94;5035438;28;20032;-78
2023/01/20 03:01:44;;;;;;;;;;;1.30;99.90;;;-144.05;75.79;125687.94;5035849;28;20056;-80
2023/01/20 03:04:20;;;;;;;51.55;24.10;;;1.30;99.90;;;-144.05;75.99;125687.94;5053441;28;19955;-80
2023/01/20 03:06:54;;;;;;;55.42;25.10;;;1.30;99.90;;;-144.05;76.31;125687.94;5035299;28;20025;-79
2023/01/20 03:09:40;;;;;;;50.45;24.98;;;1.30;99.90;;;-144.05;76.67;125687.94;5035260;28;20108;-79
2023/01/20 03:12:22;;;;;;;57.55;25.65;;;1.40;99.90;;;-144.05;76.49;125687.94;5035046;28;20503;-79
2023/01/20 03:14:51;;;;;;;62.95;28.33;;;1.30;99.90;;;-144.05;76.24;125687.94;5035023;28;20033;-80
2023/01/20 03:17:19;;;;;;;51.72;26.02;;;1.30;99.90;;;-144.05;76.66;125687.94;5036285;28;20048;-81
2023/01/20 03:19:46;;;;;;;55.35;26.55;;;1.30;99.90;;;-144.05;76.42;125687.94;5053593;28;20057;-80
2023/01/20 03:22:12;;;;;;;58.65;27.40;;;1.30;99.90;;;-144.05;76.30;125687.94;5035063;28;20119;-81
2023/01/20 03:24:44;;;;;;;55.42;26.52;;;1.30;99.90;;;-144.05;76.67;125687.94;5053873;28;20039;-81
2023/01/20 03:27:11;;;;;;;59.33;27.27;;;1.40;99.90;;;-144.05;76.87;125687.94;5035075;28;20029;-81
2023/01/20 03:29:38;;;;;;;56.55;28.50;;;1.40;99.90;;;-144.05;76.95;125687.94;5052621;28;20476;-80
2023/01/20 03:32:09;;;;;;;55.42;26.73;;;1.30;99.90;;;-144.05;77.19;125687.94;5052679;28;20456;-80
2023/01/20 03:34:41;;;;;;;57.58;26.42;;;1.40;99.90;;;-144.05;77.30;125687.94;5053713;28;20025;-80
2023/01/20 03:37:11;;;;;;;55.10;27.40;;;1.40;99.90;;;-144.05;77.17;125687.94;5035244;28;20060;-80
2023/01/20 03:39:39;;;;;;;56.50;26.98;;;1.40;99.90;;;-144.05;76.76;125687.94;5036122;28;20477;-82
2023/01/20 03:42:30;;;;;;;60.28;26.08;;;1.40;99.90;;;-144.05;77.32;125687.94;5057285;28;20512;-81
2023/01/20 03:45:22;;;;;;;58.50;25.67;;;1.40;99.90;;;-144.05;77.94;125687.94;5055029;28;20040;-82
2023/01/20 03:48:05;;;;;;;56.03;25.60;;;1.30;99.90;;;-144.05;77.91;125687.94;5053616;28;20448;-82
2023/01/20 03:50:51;;;;;;;55.35;24.30;;;1.30;99.90;;;-144.05;78.15;125687.94;5034717;28;20035;-81
2023/01/20 03:53:47;;;;;;;51.58;24.58;;;1.30;99.90;;;-144.05;78.01;125687.94;5034606;28;20127;-82
2023/01/20 03:56:40;;;;;;;51.90;21.55;;;1.20;99.90;;;-144.05;78.22;125687.94;5052447;28;20107;-80
2023/01/20 03:59:11;;;;;;;51.55;24.08;;;1.20;99.90;;;-144.05;78.15;125687.94;5034086;28;20029;-79
2023/01/20 04:01:43;;;;;;;52.28;23.13;;;1.20;99.90;;;-144.05;78.56;125687.94;5034437;28;20025;-78
2023/01/20 04:04:16;;;;;;;55.92;25.55;;;1.20;99.90;;;-144.05;78.38;125687.94;5052197;28;20032;-80
2023/01/20 04:06:48;;;;;;;56.67;26.00;;;1.20;99.90;;;-144.05;78.43;125687.94;5052061;28;20029;-82
2023/01/20 04:09:25;;;;;;;52.00;24.15;;;1.20;99.90;;;-144.05;78.82;125687.94;5051861;28;20082;-80
2023/01/20 04:11:51;;;;;;;46.95;24.45;;;1.20;99.90;;;-144.05;78.82;125687.94;5034120;28;20130;-80
2023/01/20 04:14:17;;;;;;;50.38;24.70;;;1.20;99.90;;;-144.05;78.82;125687.94;5054135;28;20044;-80
2023/01/20 04:16:56;;;;;;;50.92;24.42;;;1.20;99.90;;;-144.05;78.69;125687.94;5036345;28;20036;-81
2023/01/20 04:19:24;;;;;;;53.60;24.02;;;1.30;99.90;;;-144.05;78.63;125687.94;5052702;28;20029;-80
2023/01/20 04:22:30;;;;;;;50.80;23.85;;;1.30;99.90;;;-144.05;78.44;125687.94;5052175;28;20043;-79
2023/01/20 04:25:16;;;;;;;50.55;23.15;;;1.30;99.90;;;-144.05;78.18;125687.94;5086402;22;20551;-81
2023/01/20 04:27:42;;;;;;;53.25;24.30;;;1.30;99.90;;;-144.05;78.34;125687.94;5052359;28;20035;-83
2023/01/20 04:30:09;;;;;;;48.03;22.10;;;1.30;99.90;;;-144.05;78.25;125687.94;5050504;28;20047;-81
2023/01/20 04:32:35;;;;;;;39.83;20.15;;;1.30;99.90;;;-144.05;77.65;125687.94;5051203;28;20024;-81
2023/01/20 04:35:01;;;;;;;45.95;19.42;;;1.30;99.90;;;-144.05;77.23;125687.94;5050688;28;20033;-81
2023/01/20 04:37:27;;;;;;;47.90;20.35;;;1.30;99.90;;;-144.05;77.19;125687.94;5050442;28;20047;-82
2023/01/20 04:39:56;;;;;;;37.53;18.63;;;1.30;99.90;;;-144.05;77.01;125687.94;5050535;28;20029;-83
2023/01/20 04:42:22;;;;;;;37.45;18.27;;;1.30;99.90;;;-144.05;76.61;125687.94;5050489;28;20039;-81
2023/01/20 04:44:47;;;;;;;36.78;18.95;;;1.30;99.90;;;-144.05;76.49;125687.94;5050410;28;20389;-82
2023/01/20 04:47:13;;;;;;;33.90;17.30;;;1.30;99.90;;;-144.05;76.29;125687.94;5050311;28;20091;-81
2023/01/20 04:49:39;;;;;;;36.92;16.30;;;1.20;99.90;;;-144.05;76.59;125687.94;5050211;28;20040;-81
2023/01/20 04:52:05;;;;;;;33.20;15.68;;;1.20;99.90;;;-144.05;76.40;125687.94;5052320;28;20439;-81
2023/01/20 04:54:31;;;;;;;33.88;15.82;;;1.20;99.90;;;-144.05;76.47;125687.94;5051707;28;20033;-82
2023/01/20 04:56:57;;;;;;;31.80;15.45;;;1.20;99.90;;;-144.05;76.50;125687.94;5054486;28;20021;-81
2023/01/20 04:59:23;;;;;;;33.38;17.05;;;1.30;99.90;;;-144.05;75.88;125687.94;5051884;28;20036;-82
2023/01/20 05:01:49;;;;;;;38.10;17.38;;;1.20;99.90;;;-144.05;76.18;125687.94;5051255;28;20229;-82
2023/01/20 05:04:15;;;;;;;39.60;16.45;;;1.20;99.90;;;-144.05;75.81;125687.94;5051116;28;20031;-82
2023/01/20 05:06:42;;;;;;;39.60;17.90;;;1.20;99.90;;;-144.05;75.61;125687.94;5052535;28;20025;-81
2023/01/20 05:09:14;;;;;;;37.28;16.88;;;1.20;99.90;;;-144.05;76.19;125687.94;5051239;28;20033;-80
2023/01/20 05:11:41;;;;;;;36.00;16.88;;;1.20;99.90;;;-144.05;76.04;125687.94;5052444;28;20039;-81
2023/01/20 05:14:07;;;;;;;40.83;18.02;;;1.20;99.90;;;-144.05;76.00;125687.94;5050769;28;20061;-81
2023/01/20 05:16:33;;;;;;;38.67;17.48;;;1.20;99.90;;;-144.05;76.30;125687.94;5050807;28;20135;-80
2023/01/20 05:19:00;;;;;;;33.15;16.63;;;1.20;99.90;;;-144.05;76.15;125687.94;5051065;28;20029;-81
2023/01/20 05:21:26;;;;;;;34.72;16.95;;;1.20;99.90;;;-144.05;75.97;125687.94;5050531;28;20029;-83
2023/01/20 05:23:54;;;;;;;36.17;16.75;;;1.20;99.90;;;-144.05;76.05;125687.94;5052153;28;20033;-80
2023/01/20 05:26:25;;;;;;;40.90;18.40;;;1.20;99.90;;;-144.05;76.41;125687.94;5067546;28;20033;-82
2023/01/20 05:28:52;;;;;;;33.17;16.17;;;1.20;99.90;;;-144.05;76.08;125687.94;5050920;28;20033;-80
2023/01/20 05:31:18;;;;;;;35.33;16.52;;;1.20;99.90;;;-144.05;76.04;125687.94;5050834;28;20033;-79
2023/01/20 05:33:44;;;;;;;33.67;16.23;;;1.20;99.90;;;-144.05;76.08;125687.94;5050829;28;20484;-81
2023/01/20 05:36:11;;;;;;;31.70;15.60;;;1.20;99.90;;;-144.05;76.08;125687.94;5050854;28;20108;-80
2023/01/20 05:38:37;;;;;;;36.38;16.90;;;1.20;99.90;;;-144.05;76.29;125687.94;5051792;28;20032;-81
2023/01/20 05:41:08;;;;;;;31.00;15.50;;;1.20;99.90;;;-144.05;76.41;125687.94;5052044;28;20079;-81
2023/01/20 05:43:35;;;;;;;32.17;15.77;;;1.20;99.90;;;-144.05;76.42;125687.94;5051278;28;20029;-81
2023/01/20 05:46:01;;;;;;;32.35;16.17;;;1.20;99.90;;;-144.05;76.56;125687.94;5063591;28;20051;-80
2023/01/20 05:48:28;;;;;;;34.63;15.68;;;1.20;99.90;;;-144.05;76.50;125687.94;5074726;28;20029;-81
2023/01/20 05:50:54;;;;;;;33.75;16.05;;;1.20;99.90;;;-144.05;76.30;125687.94;5054678;28;20025;-84
2023/01/20 05:53:20;;;;;;;28.25;14.30;;;1.20;99.90;;;-144.05;76.30;125687.94;5054613;28;20036;-81
2023/01/20 05:55:46;;;;;;;29.25;14.15;;;1.20;99.90;;;-144.05;75.99;125687.94;5054409;28;20072;-79
2023/01/20 05:58:13;;;;;;;30.75;15.65;;;1.20;99.90;;;-144.05;75.73;125687.94;5055244;28;20473;-83
2023/01/20 06:00:39;;;;;;;30.67;14.50;;;1.20;99.90;;;-144.05;75.66;125687.94;5055831;28;20048;-82
2023/01/20 06:03:05;;;;;;;29.40;13.85;;;1.20;99.90;;;-144.05;75.95;125687.94;5054812;28;20033;-82
2023/01/20 06:05:31;;;;;;;28.42;14.45;;;1.20;99.90;;;-144.05;75.83;125687.94;5055690;28;20384;-85
2023/01/20 06:07:57;;;;;;;32.40;13.75;;;1.20;99.90;;;-144.05;75.52;125687.94;5054648;28;20040;-82
2023/01/20 06:10:26;;;;;;;31.13;13.93;;;1.20;99.90;;;-144.05;75.70;125687.94;5054464;28;20039;-83
2023/01/20 06:12:55;;;;;;;26.75;12.98;;;1.20;99.90;;;-144.05;75.38;125687.94;5055460;28;20506;-83
2023/01/20 06:15:23;;;;;;;29.30;13.45;;;1.20;99.90;;;-144.05;75.22;125687.94;5054032;28;20033;-79
2023/01/20 06:17:51;;;;;;;31.13;14.43;;;1.20;99.90;;;-144.05;75.01;125687.94;5054010;28;20064;-80
2023/01/20 06:20:18;;;;;;;29.02;14.48;;;1.10;99.90;;;-144.05;75.08;125687.94;5053707;28;20053;-81
2023/01/20 06:22:44;;;;;;;33.70;16.48;;;1.20;99.90;;;-144.05;75.28;125687.94;5054046;28;20105;-79
2023/01/20 06:25:10;;;;;;;31.33;14.23;;;1.20;99.90;;;-144.05;75.57;125687.94;5054128;28;20041;-83
2023/01/20 06:27:36;;;;;;;33.40;16.27;;;1.20;99.90;;;-144.05;75.50;125687.94;5054863;28;20319;-80
2023/01/20 06:30:06;;;;;;;30.30;15.00;;;1.20;99.90;;;-144.05;75.97;125687.94;5054941;28;20032;-81
2023/01/20 06:32:32;;;;;;;34.22;15.88;;;1.20;99.90;;;-144.05;75.67;125687.94;5054382;28;20041;-82
2023/01/20 06:34:58;;;;;;;30.67;15.23;;;1.20;99.90;;;-144.05;75.52;125687.94;5053840;28;20091;-82
2023/01/20 06:37:24;;;;;;;34.53;16.45;;;1.20;99.90;;;-144.05;75.56;125687.94;5054033;28;20075;-81
2023/01/20 06:39:49;;;;;;;37.45;18.35;;;1.20;99.90;;;-144.05;75.87;125687.94;5053867;28;20025;-83
2023/01/20 06:42:15;;;;;;;34.58;18.38;;;1.20;99.90;;;-144.05;76.00;125687.94;5053631;28;20048;-82
2023/01/20 06:44:41;;;;;;;40.75;18.98;;;1.20;99.90;;;-144.05;76.12;125687.94;5053950;28;20120;-83
2023/01/20 06:47:07;;;;;;;38.65;17.48;;;1.20;99.90;;;-144.05;76.05;125687.94;5054720;28;20424;-82
2023/01/20 06:49:33;;;;;;;39.97;18.00;;;1.20;99.90;;;-144.05;75.92;125687.94;5054080;28;20116;-82
2023/01/20 06:51:59;;;;;;;38.63;17.02;;;1.20;99.90;;;-144.05;76.05;125687.94;5053680;28;20511;-83
2023/01/20 06:54:26;;;;;;;43.10;18.80;;;1.20;99.90;;;-144.05;76.39;125687.94;5053135;28;20037;-83
2023/01/20 06:56:51;;;;;;;38.10;17.65;;;1.30;99.90;;;-144.05;76.08;125687.94;5052727;28;20090;-82
2023/01/20 06:59:18;;;;;;;43.55;20.75;;;1.30;99.90;;;-144.05;75.71;125687.94;5052665;28;20029;-82
2023/01/20 07:01:43;;;;;;;36.85;19.45;;;1.30;99.90;;;-144.05;76.02;125687.94;5052799;28;20031;-82
2023/01/20 07:04:13;;;;;;;38.75;17.77;;;1.30;99.90;;;-144.05;76.25;125687.94;5052895;28;20118;-82
2023/01/20 07:06:42;;;;;;;46.17;19.52;;;1.30;99.90;;;-144.05;75.92;125687.94;5056682;28;20056;-83
2023/01/20 07:09:12;;;;;;;44.35;20.17;;;1.30;99.90;;;-144.05;75.87;125687.94;5053246;28;20045;-83
2023/01/20 07:11:38;;;;;;;40.90;18.70;;;1.30;99.90;;;-144.05;76.03;125687.94;5054296;28;20045;-82
2023/01/20 07:14:07;;;;;;;39.63;18.88;;;1.30;99.90;;;-144.05;75.75;125687.94;5052931;28;20132;-82
2023/01/20 07:16:33;;;;;;;41.67;20.67;;;1.40;99.90;;;-144.05;75.88;125687.94;5053369;28;20025;-84
2023/01/20 07:18:59;;;;;;;35.78;17.65;;;1.40;99.90;;;-144.05;75.55;125687.94;5054679;28;20032;-82
2023/01/20 07:21:26;;;;;;;39.55;18.30;;;1.40;99.90;;;-144.05;75.62;125687.94;5055472;28;20032;-83
2023/01/20 07:23:52;;;;;;;42.30;18.58;;;1.40;99.90;;;-144.05;75.57;125687.94;5054004;28;20037;-84
2023/01/20 07:26:23;;;;;;;30.15;15.43;;;1.40;99.90;;;-144.05;75.91;125687.94;5055103;28;20031;-82
2023/01/20 07:28:49;;;;;;;33.78;17.33;;;1.40;99.90;;;-144.05;75.01;125687.94;5066676;28;20287;-85
2023/01/20 07:31:21;;;;;;;27.23;13.48;;;1.40;99.90;;;-144.05;74.60;125687.94;5075166;28;20039;-83
2023/01/20 07:33:47;;;;;;;36.72;15.18;;;1.50;99.90;;;-144.05;74.22;125687.94;5075333;28;20028;-85
2023/01/20 07:36:15;;;;;;;29.92;15.10;;;1.40;99.90;;;-144.05;73.92;125687.94;5071331;28;20092;-80
2023/01/20 07:38:45;;;;;;;33.22;15.20;;;1.50;99.90;;;-144.05;73.75;125687.94;5055616;28;20120;-80
2023/01/20 07:41:14;;;;;;;29.35;13.68;;;1.50;99.90;;;-144.05;74.34;125687.94;5053814;28;20025;-85
2023/01/20 07:43:51;;;;;;;30.00;14.32;;;1.50;99.90;;;-144.05;74.29;125687.94;5065411;28;20039;-81
2023/01/20 07:46:19;;;;;;;31.45;14.90;;;1.50;99.90;;;-144.05;74.21;125687.94;5067736;28;20041;-83
2023/01/20 07:48:45;;;;;;;35.15;15.07;;;1.50;99.90;;;-144.05;74.02;125687.94;5052858;28;20400;-82
2023/01/20 07:51:14;;;;;;;36.58;15.90;;;1.50;99.90;;;-144.05;73.88;125687.94;5052903;28;20070;-82
2023/01/20 07:53:46;;;;;;;36.20;14.82;;;1.50;99.90;;;-144.05;73.89;125687.94;5053851;28;20400;-82
2023/01/20 07:56:25;;;;;;;35.95;16.42;;;1.50;99.90;;;-144.05;74.11;125687.94;5053042;28;20459;-82
2023/01/20 07:58:54;;;;;;;34.60;16.63;;;1.50;99.90;;;-144.05;74.05;125687.94;5054467;28;20056;-83
2023/01/20 08:01:28;;;;;;;35.90;15.25;;;1.50;99.90;;;-144.05;74.21;125687.94;5069311;28;20123;-82
2023/01/20 08:03:54;;;;;;;39.45;17.35;;;1.50;99.90;;;-144.05;74.38;125687.94;5053294;28;20473;-81
2023/01/20 08:06:24;;;;;;;35.25;15.85;;;1.60;99.90;;;-144.05;74.27;125687.94;5052908;28;20064;-82
2023/01/20 08:08:52;;;;;;;36.40;15.90;;;1.60;99.90;;;-144.05;73.89;125687.94;5051397;28;20040;-84
2023/01/20 08:11:21;;;;;;;33.00;16.70;;;1.70;99.90;;;-144.05;73.94;125687.94;5052772;28;20044;-84
2023/01/20 08:13:47;;;;;;;30.48;15.85;;;1.70;99.90;;;-144.05;73.90;125687.94;5055255;28;20400;-82
2023/01/20 08:16:17;;;;;;;36.03;16.13;;;1.70;99.90;;;-144.05;73.98;125687.94;5052669;28;20024;-82
2023/01/20 08:18:44;;;;;;;37.42;16.92;;;1.70;99.90;;;-144.05;73.92;125687.94;5052595;28;20444;-82
2023/01/20 08:21:29;;;;;;;41.63;17.65;;;1.70;99.90;;;-144.05;73.74;125687.94;5053801;28;20029;-83
2023/01/20 08:23:58;;;;;;;36.08;18.80;;;1.70;99.90;;;-144.05;73.58;125687.94;5051810;28;20061;-82
2023/01/20 08:26:28;;;;;;;39.30;18.67;;;1.60;99.90;;;-144.05;74.12;125687.94;5052183;28;20043;-83
2023/01/20 08:29:00;;;;;;;44.38;20.05;;;1.50;99.90;;;-144.05;74.38;125687.94;5051496;28;20035;-82
2023/01/20 08:31:26;;;;;;;38.08;19.40;;;1.60;99.90;;;-144.05;74.31;125687.94;5053374;28;20082;-84
2023/01/20 08:33:55;;;;;;;39.13;19.15;;;1.60;99.90;;;-144.05;74.08;125687.94;5054153;28;20090;-82
2023/01/20 08:36:33;;;;;;;37.45;19.38;;;1.80;99.90;;;-144.05;72.86;125687.94;5052916;28;20021;-84
2023/01/20 08:39:03;;;;;;;39.28;18.55;;;1.80;99.90;;;-144.05;72.51;125687.94;5052528;28;20025;-81
2023/01/20 08:41:35;;;;;;;45.28;19.52;;;1.90;99.90;;;-144.05;72.29;125687.94;5052855;28;20029;-79
2023/01/20 08:44:05;;;;;;;41.00;19.63;;;2.20;99.90;;;-144.05;71.42;125687.94;5052655;28;20123;-79
2023/01/20 08:46:33;;;;;;;36.28;19.10;;;2.30;99.90;;;-144.05;70.88;125687.94;5053958;28;20017;-82
2023/01/20 08:48:59;;;;;;;37.35;17.92;;;2.40;99.90;;;-144.05;70.57;125687.94;5051954;28;20290;-82
2023/01/20 08:51:30;;;;;;;32.80;18.05;;;2.40;99.90;;;-144.05;70.73;125687.94;5051807;28;20108;-81
2023/01/20 08:53:57;;;;;;;37.90;19.25;;;2.40;99.90;;;-144.05;70.70;125687.94;5051871;28;20107;-81
2023/01/20 08:56:24;;;;;;;38.63;19.02;;;2.30;99.90;;;-144.05;70.60;125687.94;5051909;28;20067;-82
2023/01/20 08:58:52;;;;;;;37.35;18.92;;;2.30;99.90;;;-144.05;70.54;125687.94;5052145;28;20025;-81
2023/01/20 09:01:25;;;;;;;36.45;18.83;;;2.30;99.90;;;-144.05;70.85;125687.94;5052127;28;20056;-82
2023/01/20 09:03:51;;;;;;;35.63;17.98;;;2.30;99.90;;;-144.05;70.40;125687.94;5053874;28;20036;-82
2023/01/20 09:06:20;;;;;;;38.63;18.55;;;2.30;99.90;;;-144.05;70.51;125687.94;5052893;28;20613;-81
2023/01/20 09:08:51;;;;;;;32.10;16.45;;;2.30;99.90;;;-144.05;69.81;125687.94;5053635;28;20104;-82
2023/01/20 09:11:23;;;;;;;33.92;16.67;;;2.40;99.90;;;-144.05;69.35;125687.94;5052378;28;20195;-82
2023/01/20 09:13:49;;;;;;;28.63;16.58;;;2.50;99.90;;;-144.05;68.66;125687.94;5052273;28;20286;-82
2023/01/20 09:16:18;;;;;;;29.38;15.18;;;2.60;99.90;;;-144.05;67.69;125687.94;5052620;28;20025;-82
2023/01/20 09:18:44;;;;;;;30.88;15.18;;;2.70;99.90;;;-144.05;67.30;125687.94;5051643;28;20036;-82
2023/01/20 09:21:10;;;;;;;28.30;15.18;;;3.00;99.90;;;-144.05;65.88;125687.94;5057700;28;20036;-82
2023/01/20 09:23:39;;;;;;;24.52;14.60;;;3.10;99.90;;;-144.05;64.96;125687.94;5055904;28;20045;-82
2023/01/20 09:26:07;;;;;;;25.65;14.52;;;3.20;99.90;;;-144.05;65.02;125687.94;5055982;28;20124;-85
2023/01/20 09:28:34;;;;;;;22.00;13.27;;;3.20;99.90;;;-144.05;65.01;125687.94;5055865;28;20074;-82
2023/01/20 09:31:07;;;;;;;27.38;14.77;;;3.20;99.90;;;-144.05;64.88;125687.94;5055867;28;20040;-82
2023/01/20 09:33:38;;;;;;;25.33;14.38;;;3.30;99.90;;;-144.05;63.55;125687.94;5055623;28;20032;-83
2023/01/20 09:36:08;;;;;;;23.23;12.55;;;3.40;99.90;;;-144.05;63.25;125687.94;5056760;28;20495;-85
2023/01/20 09:44:42;;;;;;;21.52;12.20;;;3.80;99.90;;;-144.05;61.80;125687.94;5057152;28;20040;-82
2023/01/20 09:47:42;;;;;;;26.55;12.68;;;4.00;99.90;;;-144.05;61.75;125687.94;5056128;28;20032;-83
2023/01/20 09:54:16;;;;;;;23.33;10.93;;;3.80;99.90;;;-144.05;62.82;125687.94;5056570;28;20104;-81
2023/01/20 09:56:50;;;;;;;18.83;10.57;;;3.70;99.90;;;-144.05;62.52;125687.94;5055531;28;20033;-80
2023/01/20 09:59:39;;;;;;;19.42;10.48;;;3.50;99.90;;;-144.05;63.04;125687.94;5054370;28;20033;-81
2023/01/20 10:02:23;;;;;;;23.35;11.20;;;3.30;99.90;;;-144.05;63.71;125687.94;5054408;28;20129;-80
2023/01/20 10:05:10;;;;;;;19.95;10.35;;;3.20;99.90;;;-144.05;64.50;125687.94;5054656;28;20158;-81
2023/01/20 10:08:02;;;;;;;22.05;11.63;;;3.10;99.90;;;-144.05;63.75;125687.94;5054919;28;20437;-80
2023/01/20 10:10:41;;;;;;;22.55;11.02;;;3.00;99.90;;;-144.05;64.49;125687.94;5055183;28;20097;-81
2023/01/20 10:13:39;;;;;;;20.77;11.93;;;3.00;99.90;;;-144.05;63.75;125687.94;5054818;28;20036;-81
2023/01/20 10:16:11;;;;;;;19.08;11.10;;;2.90;99.90;;;-144.05;65.52;125687.94;5055176;28;20029;-81
2023/01/20 10:18:59;;;;;;;19.35;10.45;;;2.90;99.90;;;-144.05;65.28;125687.94;5054659;28;20421;-81
2023/01/20 10:21:43;;;;;;;19.45;10.68;;;2.80;99.90;;;-144.05;65.41;125687.94;5055832;28;20037;-81